New Iberia, LA

5:26 PM CDT on April 25, 2015 (GMT -0500)
Intracoastal City | | Change Station
CLOSE
Current Station
Airport
Location: Intracoastal City,
Elevation: 16 ft
Nearby Weather Stations

Elev 16 ft 29.78 °N, 92.13 °W | Updated 14 minutes ago

Mostly Cloudy
Mostly Cloudy
73 °F
Feels Like 73 °F
N
4
Wind Variable Wind from SE

Today
High -- | Low -- °F
--% Chance of Precip.
Yesterday
High -- | Low -- °F
Precip. -- in
6:30 AM 7:40 PM
Waxing Crescent, 49% visible
Pressure 29.73 in
Visibility 7.0 miles
Clouds Mostly Cloudy 10000 ft
Dew Point 55 °F
Humidity 53%
Rainfall 0.08 in
Snow Depth Not available.
UV 2 out of 12
Pollen 7.20 out of 12
Air Quality Not available.
Flu Activity Sporadic
SPECI K7R4 252212Z 14003KT 7SM BKN100 23/13 A2973

More Conditions Fewer Conditions

Pressure 29.73 in
Visibility 7.0 miles
Clouds Mostly Cloudy 10000 ft
Dew Point 55 °F
Humidity 53%
Rainfall 0.08 in
Snow Depth Not available.
UV 2 out of 12
Pollen 7.20 out of 12
Air Quality Not available.
Flu Activity Sporadic
SPECI K7R4 252212Z 14003KT 7SM BKN100 23/13 A2973

More Conditions Fewer Conditions

10-Day Weather Forecast

Almanac

Astronomy

Apr. 25, 2015 Rise Set
Actual Time
Civil Twilight
Nautical Twilight
Astronomical Twilight
Moon
Length of Visible Light
Length of Day
Tomorrow will be .
, % of the Moon is Illuminated

Today's Extremes

State Highs State Lows

Community

WunderPhotos

Upload Photos

1,816,833 photos uploaded!

WunderBlogs® & News

Nearby

Air Quality

  Air Quality AQ Index Pollutant
Not available.

Snow Depth

Station Depth Elevation

Earthquake Activity

City Distance Mag. Time & Date
Minimum magnitude displayed is 2.5.

Coastal Water Temperatures

Place Temperature

Stations

Nearby Weather Stations

Station Location Temp. Windchill Dew Point Humidity Wind Precip. Elev Updated Type